Time;durP1;ratioP1;P1;durP2;ratioP2;P2;SDS_P1;SDS_P2;PMS_P1;PMS_P2;Temp;Humidity;BMP_temperature;BMP_pressure;BME280_temperature;BME280_humidity;BME280_pressure;Samples;Min_cycle;Max_cycle;Signal;HPM_P1;HPM_P2
2022/06/15 00:02:01;;;;;;;;;;;23.60;51.40;;;;;;4899869;29;19911;-69
2022/06/15 00:04:26;;;;;;;;;;;23.70;50.90;;;;;;4899950;29;19959;-69
2022/06/15 00:06:52;;;;;;;;;;;23.70;51.30;;;;;;4899782;29;19912;-71
2022/06/15 00:09:18;;;;;;;;;;;23.50;51.90;;;;;;4899582;29;20336;-69
2022/06/15 00:11:44;;;;;;;;;;;23.50;51.70;;;;;;4899750;29;19915;-71
2022/06/15 00:14:14;;;;;;;;;;;23.50;51.40;;;;;;4899308;29;19920;-70
2022/06/15 00:16:39;;;;;;;;;;;23.50;51.60;;;;;;4899483;29;20245;-70
2022/06/15 00:19:05;;;;;;;;;;;23.30;51.70;;;;;;4899441;29;19918;-68
2022/06/15 00:21:31;;;;;;;;;;;23.40;51.80;;;;;;4899454;29;19923;-71
2022/06/15 00:23:57;;;;;;;;;;;23.30;51.80;;;;;;4899586;29;19958;-72
2022/06/15 00:26:23;;;;;;;;;;;23.30;52.00;;;;;;4899482;29;19919;-72
2022/06/15 00:28:50;;;;;;;;;;;23.40;51.90;;;;;;4899310;29;20361;-71
2022/06/15 00:31:16;;;;;;;;;;;23.50;51.70;;;;;;4899401;29;19962;-70
2022/06/15 00:33:42;;;;;;;;;;;23.40;51.90;;;;;;4899346;29;19966;-70
2022/06/15 00:36:09;;;;;;;;;;;23.30;52.00;;;;;;4899237;29;19959;-69
2022/06/15 00:38:36;;;;;;;;;;;23.30;52.20;;;;;;4899101;29;20781;-70
2022/06/15 00:41:02;;;;;;;;;;;23.40;52.20;;;;;;4899204;29;19915;-69
2022/06/15 00:43:38;;;;;;;;;;;23.30;52.30;;;;;;4899293;29;19911;-71
2022/06/15 00:46:17;;;;;;;;;;;23.20;52.50;;;;;;4897644;29;19912;-69
2022/06/15 00:48:43;;;;;;;;;;;23.20;52.50;;;;;;4898824;29;19959;-70
2022/06/15 00:51:09;;;;;;;;;;;23.30;52.50;;;;;;4899048;29;20427;-68
2022/06/15 00:53:34;;;;;;;;;;;23.20;52.60;;;;;;4899047;29;19920;-67
2022/06/15 00:56:01;;;;;;;;;;;23.20;52.70;;;;;;4898901;29;20382;-70
2022/06/15 00:58:26;;;;;;;;;;;23.20;52.80;;;;;;4899015;29;19969;-71
2022/06/15 01:00:54;;;;;;;;;;;23.20;52.70;;;;;;4899001;29;19911;-69
2022/06/15 01:03:19;;;;;;;;;;;23.10;52.70;;;;;;4898775;29;20320;-70
2022/06/15 01:06:04;;;;;;;;;;;23.10;52.80;;;;;;4898686;29;19959;-69
2022/06/15 01:08:55;;;;;;;;;;;23.10;52.90;;;;;;4897246;29;20288;-67
2022/06/15 01:11:21;;;;;;;;;;;23.10;53.00;;;;;;4898708;29;20010;-69
2022/06/15 01:14:01;;;;;;;;;;;23.10;53.10;;;;;;4898591;29;20007;-67
2022/06/15 01:16:35;;;;;;;;;;;23.10;53.00;;;;;;4898906;29;20355;-63
2022/06/15 01:19:01;;;;;;;;;;;23.00;53.30;;;;;;4898950;29;20300;-69
2022/06/15 01:21:46;;;;;;;;;;;22.90;53.40;;;;;;4897294;29;19934;-66
2022/06/15 01:24:11;;;;;;;;;;;22.90;53.60;;;;;;4898968;29;20352;-66
2022/06/15 01:26:55;;;;;;;;;;;22.90;53.50;;;;;;4900328;29;19998;-63
2022/06/15 01:29:24;;;;;;;;;;;23.00;53.50;;;;;;4902580;29;19918;-66
2022/06/15 01:32:10;;;;;;;;;;;23.00;53.50;;;;;;4901275;29;19930;-67
2022/06/15 01:34:40;;;;;;;;;;;22.90;53.60;;;;;;4898828;29;19975;-64
2022/06/15 01:37:10;;;;;;;;;;;22.80;54.00;;;;;;4902465;29;20002;-64
2022/06/15 01:39:41;;;;;;;;;;;22.80;53.90;;;;;;4902385;29;20352;-64
2022/06/15 01:42:29;;;;;;;;;;;22.80;54.10;;;;;;4902269;29;19911;-67
2022/06/15 01:44:56;;;;;;;;;;;22.70;54.10;;;;;;4902380;29;19971;-70
2022/06/15 01:47:22;;;;;;;;;;;22.80;53.90;;;;;;4903022;29;19912;-68
2022/06/15 01:49:51;;;;;;;;;;;22.80;54.00;;;;;;4902948;29;19987;-69
2022/06/15 01:52:20;;;;;;;;;;;22.80;54.10;;;;;;4903417;29;19911;-69
2022/06/15 01:54:50;;;;;;;;;;;22.70;54.10;;;;;;4902890;29;19923;-68
2022/06/15 01:57:16;;;;;;;;;;;22.70;54.10;;;;;;4903082;29;20002;-65
2022/06/15 01:59:44;;;;;;;;;;;22.60;54.20;;;;;;4902905;29;19911;-68
2022/06/15 02:02:21;;;;;;;;;;;22.60;54.30;;;;;;4903078;29;19943;-68
2022/06/15 02:05:01;;;;;;;;;;;22.60;54.50;;;;;;4903483;29;20010;-67
2022/06/15 02:07:34;;;;;;;;;;;22.60;54.40;;;;;;4903610;29;19919;-70
2022/06/15 02:10:02;;;;;;;;;;;22.70;54.30;;;;;;4903853;29;19954;-63
2022/06/15 02:12:38;;;;;;;;;;;22.70;54.10;;;;;;4903814;29;19911;-70
2022/06/15 02:15:05;;;;;;;;;;;22.70;54.20;;;;;;4903377;29;19983;-65
2022/06/15 02:17:36;;;;;;;;;;;22.60;54.30;;;;;;4902746;29;19911;-71
2022/06/15 02:20:22;;;;;;;;;;;22.60;54.30;;;;;;4903771;29;19916;-74
2022/06/15 02:22:49;;;;;;;;;;;22.60;54.10;;;;;;4906122;29;19922;-73
2022/06/15 02:25:17;;;;;;;;;;;22.70;54.30;;;;;;4906543;29;19999;-75
2022/06/15 02:27:42;;;;;;;;;;;22.60;54.30;;;;;;4907306;29;19919;-68
2022/06/15 02:30:12;;;;;;;;;;;22.60;54.20;;;;;;4903715;29;19911;-73
2022/06/15 02:32:38;;;;;;;;;;;22.60;54.30;;;;;;4903695;29;19912;-71
2022/06/15 02:35:04;;;;;;;;;;;22.60;54.20;;;;;;4903745;29;20266;-76
2022/06/15 02:37:30;;;;;;;;;;;22.60;54.10;;;;;;4903217;29;19955;-74
2022/06/15 02:39:55;;;;;;;;;;;22.70;54.00;;;;;;4903164;29;20253;-69
2022/06/15 02:42:30;;;;;;;;;;;22.70;53.90;;;;;;4901871;29;19912;-72
2022/06/15 02:44:57;;;;;;;;;;;22.60;53.90;;;;;;4901608;29;19911;-70
2022/06/15 02:47:25;;;;;;;;;;;22.70;53.90;;;;;;4901489;29;19951;-75
2022/06/15 02:49:51;;;;;;;;;;;22.70;53.90;;;;;;4900996;29;19912;-69
2022/06/15 02:52:19;;;;;;;;;;;22.70;53.80;;;;;;4901199;29;19911;-75
2022/06/15 02:54:46;;;;;;;;;;;22.70;53.80;;;;;;4901246;29;19920;-73
2022/06/15 02:57:12;;;;;;;;;;;22.70;53.80;;;;;;4901296;29;20411;-76
2022/06/15 02:59:38;;;;;;;;;;;22.70;53.60;;;;;;4901258;29;19998;-73
2022/06/15 03:02:03;;;;;;;;;;;22.70;53.60;;;;;;4901434;29;19911;-74
2022/06/15 03:04:29;;;;;;;;;;;22.70;53.60;;;;;;4901301;29;19917;-75
2022/06/15 03:06:55;;;;;;;;;;;22.70;53.50;;;;;;4901603;29;19916;-71
2022/06/15 03:09:21;;;;;;;;;;;22.70;53.50;;;;;;4903244;29;19967;-75
2022/06/15 03:11:46;;;;;;;;;;;22.70;53.30;;;;;;4902731;29;19916;-75
2022/06/15 03:14:15;;;;;;;;;;;22.70;53.50;;;;;;4901121;29;19919;-73
2022/06/15 03:16:47;;;;;;;;;;;22.60;53.50;;;;;;4901231;29;20304;-75
2022/06/15 03:19:13;;;;;;;;;;;22.70;53.50;;;;;;4900467;29;19912;-76
2022/06/15 03:21:38;;;;;;;;;;;22.70;53.40;;;;;;4900320;29;20395;-75
2022/06/15 03:24:04;;;;;;;;;;;22.70;53.50;;;;;;4900576;29;19915;-76
2022/06/15 03:26:30;;;;;;;;;;;22.70;53.40;;;;;;4900562;29;19927;-74
2022/06/15 03:28:55;;;;;;;;;;;22.70;53.20;;;;;;4900367;29;19923;-75
2022/06/15 03:31:21;;;;;;;;;;;22.80;52.80;;;;;;4899058;29;19912;-75
2022/06/15 03:33:47;;;;;;;;;;;22.90;53.20;;;;;;4900239;29;20018;-73
2022/06/15 03:36:12;;;;;;;;;;;22.80;53.70;;;;;;4900372;29;19951;-72
2022/06/15 03:38:38;;;;;;;;;;;22.80;53.30;;;;;;4900177;29;19911;-71
2022/06/15 03:41:03;;;;;;;;;;;22.80;53.00;;;;;;4900290;29;19967;-72
2022/06/15 03:43:29;;;;;;;;;;;22.90;52.80;;;;;;4900243;29;20420;-73
2022/06/15 03:45:56;;;;;;;;;;;22.80;52.90;;;;;;4900190;29;19911;-73
2022/06/15 03:48:22;;;;;;;;;;;22.90;53.10;;;;;;4899724;29;19911;-72
2022/06/15 03:50:47;;;;;;;;;;;22.90;53.20;;;;;;4900176;29;20296;-76
2022/06/15 03:53:13;;;;;;;;;;;22.90;52.80;;;;;;4900306;29;19915;-75
2022/06/15 03:55:40;;;;;;;;;;;22.80;53.10;;;;;;4899873;29;19926;-74
2022/06/15 03:58:05;;;;;;;;;;;22.80;53.50;;;;;;4900521;29;19911;-73
2022/06/15 04:00:32;;;;;;;;;;;22.80;53.70;;;;;;4901614;29;20343;-73
2022/06/15 04:02:57;;;;;;;;;;;22.70;54.10;;;;;;4902032;29;19919;-73
2022/06/15 04:05:31;;;;;;;;;;;22.90;53.70;;;;;;4904923;29;19912;-73
2022/06/15 04:10:40;;;;;;;;;;;22.90;53.80;;;;;;4905967;29;19962;-73
2022/06/15 04:13:06;;;;;;;;;;;22.80;54.10;;;;;;4900849;29;19919;-74
2022/06/15 04:15:32;;;;;;;;;;;22.70;54.30;;;;;;4899557;29;20010;-74
2022/06/15 04:17:57;;;;;;;;;;;22.90;54.00;;;;;;4899266;29;19919;-74
2022/06/15 04:20:33;;;;;;;;;;;23.10;53.50;;;;;;4899328;29;19923;-71
2022/06/15 04:23:00;;;;;;;;;;;23.10;53.40;;;;;;4899515;29;20284;-71
2022/06/15 04:25:26;;;;;;;;;;;23.00;54.00;;;;;;4899532;29;19922;-74
2022/06/15 04:27:52;;;;;;;;;;;22.90;54.40;;;;;;4899213;29;20002;-73
2022/06/15 04:30:17;;;;;;;;;;;22.90;54.70;;;;;;4899304;29;19918;-74
2022/06/15 04:32:43;;;;;;;;;;;22.80;55.50;;;;;;4899207;29;19950;-74
2022/06/15 04:35:09;;;;;;;;;;;22.60;55.60;;;;;;4899247;29;19926;-75
2022/06/15 04:37:37;;;;;;;;;;;22.60;55.90;;;;;;4899385;29;19911;-73
2022/06/15 04:40:03;;;;;;;;;;;22.50;56.10;;;;;;4899166;29;19918;-72
2022/06/15 04:42:29;;;;;;;;;;;22.50;56.40;;;;;;4899175;29;19946;-72
2022/06/15 04:44:54;;;;;;;;;;;22.60;56.40;;;;;;4899407;29;19953;-75
2022/06/15 04:47:20;;;;;;;;;;;22.60;57.10;;;;;;4898976;29;20003;-74
2022/06/15 04:49:46;;;;;;;;;;;22.60;56.50;;;;;;4898922;29;20269;-76
2022/06/15 04:52:11;;;;;;;;;;;22.60;57.70;;;;;;4898870;29;19959;-75
2022/06/15 04:54:37;;;;;;;;;;;22.50;58.10;;;;;;4898908;29;20399;-74
2022/06/15 04:57:02;;;;;;;;;;;22.40;58.70;;;;;;4898867;29;20296;-74
2022/06/15 04:59:28;;;;;;;;;;;22.40;58.20;;;;;;4898953;29;19998;-73
2022/06/15 05:01:55;;;;;;;;;;;22.40;59.00;;;;;;4898064;29;19911;-74
2022/06/15 05:04:21;;;;;;;;;;;22.30;59.00;;;;;;4898544;29;19966;-74
2022/06/15 05:06:46;;;;;;;;;;;22.30;59.30;;;;;;4898831;29;20010;-72
2022/06/15 05:09:13;;;;;;;;;;;22.30;59.80;;;;;;4898877;29;19912;-70
2022/06/15 05:11:39;;;;;;;;;;;22.30;60.50;;;;;;4898674;29;19911;-68
2022/06/15 05:14:05;;;;;;;;;;;22.30;59.80;;;;;;4898800;29;20043;-73
2022/06/15 05:16:31;;;;;;;;;;;22.30;60.10;;;;;;4898538;29;20002;-69
2022/06/15 05:18:56;;;;;;;;;;;22.30;59.50;;;;;;4898612;29;19915;-69
2022/06/15 05:21:22;;;;;;;;;;;22.40;59.50;;;;;;4898584;29;19927;-73
2022/06/15 05:23:47;;;;;;;;;;;22.50;59.50;;;;;;4898650;29;20308;-74
2022/06/15 05:26:13;;;;;;;;;;;22.60;58.50;;;;;;4898483;29;19911;-75
2022/06/15 05:28:45;;;;;;;;;;;22.60;59.50;;;;;;4898594;29;19937;-73
2022/06/15 05:31:16;;;;;;;;;;;22.60;58.60;;;;;;4898465;29;19912;-75
2022/06/15 05:33:42;;;;;;;;;;;22.80;57.60;;;;;;4898498;29;20040;-73
2022/06/15 05:36:09;;;;;;;;;;;23.00;58.60;;;;;;4898455;29;19911;-74
2022/06/15 05:38:35;;;;;;;;;;;23.40;58.10;;;;;;4898340;29;20011;-76
2022/06/15 05:41:02;;;;;;;;;;;23.90;56.80;;;;;;4898393;29;19916;-73
2022/06/15 05:43:28;;;;;;;;;;;24.50;55.20;;;;;;4898383;29;19918;-75
2022/06/15 05:45:54;;;;;;;;;;;25.10;53.90;;;;;;4898536;29;19999;-73
2022/06/15 05:48:19;;;;;;;;;;;25.70;52.90;;;;;;4898491;29;20344;-74
2022/06/15 05:50:45;;;;;;;;;;;26.30;51.60;;;;;;4898336;29;19915;-71
2022/06/15 05:53:10;;;;;;;;;;;26.70;49.70;;;;;;4898311;29;19911;-72
2022/06/15 05:55:36;;;;;;;;;;;27.00;48.50;;;;;;4898204;29;19930;-72
2022/06/15 05:58:02;;;;;;;;;;;27.40;48.60;;;;;;4898370;29;19998;-72
2022/06/15 06:00:27;;;;;;;;;;;27.70;48.50;;;;;;4898212;29;19911;-71
2022/06/15 06:02:53;;;;;;;;;;;28.00;47.10;;;;;;4898465;29;19918;-72
2022/06/15 06:05:19;;;;;;;;;;;28.20;46.60;;;;;;4898285;29;19967;-65
2022/06/15 06:07:44;;;;;;;;;;;28.50;46.60;;;;;;4897184;29;19999;-72
2022/06/15 06:10:10;;;;;;;;;;;28.60;45.90;;;;;;4898630;29;19912;-71
2022/06/15 06:12:36;;;;;;;;;;;28.80;44.60;;;;;;4900179;29;20446;-73
2022/06/15 06:15:01;;;;;;;;;;;29.00;44.30;;;;;;4901823;29;19970;-71
2022/06/15 06:17:27;;;;;;;;;;;29.20;43.20;;;;;;4901776;29;19998;-65
2022/06/15 06:19:53;;;;;;;;;;;29.30;42.70;;;;;;4901440;29;19976;-62
2022/06/15 06:22:18;;;;;;;;;;;29.40;42.00;;;;;;4901852;29;19915;-67
2022/06/15 06:24:44;;;;;;;;;;;29.50;42.00;;;;;;4900263;29;19919;-71
2022/06/15 06:27:13;;;;;;;;;;;29.60;41.80;;;;;;4901790;29;19911;-65
2022/06/15 06:29:39;;;;;;;;;;;29.70;41.80;;;;;;4901521;29;19911;-62
2022/06/15 06:32:05;;;;;;;;;;;29.80;41.70;;;;;;4901615;29;19995;-64
2022/06/15 06:34:31;;;;;;;;;;;29.90;41.40;;;;;;4901599;29;19967;-63
2022/06/15 06:36:57;;;;;;;;;;;29.90;41.50;;;;;;4901632;29;20010;-67
2022/06/15 06:39:27;;;;;;;;;;;30.00;41.00;;;;;;4901232;29;19931;-68
2022/06/15 06:41:53;;;;;;;;;;;30.10;40.80;;;;;;4901310;29;19912;-65
2022/06/15 06:44:19;;;;;;;;;;;30.10;40.30;;;;;;4901152;29;19912;-68
2022/06/15 06:46:45;;;;;;;;;;;30.20;40.90;;;;;;4901208;29;19912;-65
2022/06/15 06:49:11;;;;;;;;;;;30.30;40.80;;;;;;4900967;29;19967;-72
2022/06/15 06:51:38;;;;;;;;;;;30.40;40.80;;;;;;4900723;29;20303;-72
2022/06/15 06:54:04;;;;;;;;;;;30.40;39.50;;;;;;4901247;29;19919;-65
2022/06/15 06:56:30;;;;;;;;;;;30.40;39.20;;;;;;4900870;29;19959;-67
2022/06/15 06:58:55;;;;;;;;;;;30.40;39.90;;;;;;4900905;29;20307;-64
2022/06/15 07:01:21;;;;;;;;;;;30.40;39.60;;;;;;4900976;29;20292;-76
2022/06/15 07:03:47;;;;;;;;;;;30.60;39.20;;;;;;4898668;29;19915;-75
2022/06/15 07:06:13;;;;;;;;;;;30.60;39.50;;;;;;4890627;29;19912;-79
2022/06/15 07:08:39;;;;;;;;;;;30.70;39.70;;;;;;4891188;29;20411;-69
2022/06/15 07:11:11;;;;;;;;;;;30.60;39.70;;;;;;4890834;29;19916;-71
2022/06/15 07:13:37;;;;;;;;;;;30.30;41.00;;;;;;4891737;29;19962;-74
2022/06/15 07:16:03;;;;;;;;;;;30.00;41.40;;;;;;4891309;29;19920;-76
2022/06/15 07:18:29;;;;;;;;;;;29.70;42.10;;;;;;4889794;29;19911;-78
2022/06/15 07:20:54;;;;;;;;;;;29.60;42.80;;;;;;4891060;29;20432;-76
2022/06/15 07:23:20;;;;;;;;;;;29.40;43.40;;;;;;4881095;29;20007;-78
2022/06/15 07:25:45;;;;;;;;;;;29.20;43.80;;;;;;4881714;29;19912;-69
2022/06/15 07:28:13;;;;;;;;;;;29.20;43.70;;;;;;4881629;29;20369;-74
2022/06/15 07:30:38;;;;;;;;;;;29.30;43.70;;;;;;4881648;29;19912;-76
2022/06/15 07:33:04;;;;;;;;;;;29.30;43.60;;;;;;4881559;29;19912;-74
2022/06/15 07:35:31;;;;;;;;;;;29.50;43.70;;;;;;4881450;29;19967;-74
2022/06/15 07:37:56;;;;;;;;;;;29.60;42.70;;;;;;4881702;29;20368;-72
2022/06/15 07:40:23;;;;;;;;;;;29.70;41.90;;;;;;4881479;29;19919;-73
2022/06/15 07:42:49;;;;;;;;;;;29.70;41.80;;;;;;4884115;29;19920;-69
2022/06/15 07:45:16;;;;;;;;;;;29.80;42.30;;;;;;4890151;29;19922;-68
2022/06/15 07:50:26;;;;;;;;;;;29.60;43.10;;;;;;4893904;29;19934;-76
2022/06/15 07:52:52;;;;;;;;;;;29.50;42.70;;;;;;4888595;29;19947;-70
2022/06/15 07:55:21;;;;;;;;;;;29.40;42.80;;;;;;4892536;29;19925;-73
2022/06/15 07:57:47;;;;;;;;;;;29.30;43.90;;;;;;4893998;29;19959;-74
2022/06/15 08:00:13;;;;;;;;;;;29.10;43.40;;;;;;4890641;29;20309;-67
2022/06/15 08:02:39;;;;;;;;;;;29.00;43.80;;;;;;4892976;29;19911;-75
2022/06/15 08:05:05;;;;;;;;;;;29.00;44.00;;;;;;4900187;29;19912;-75
2022/06/15 08:07:30;;;;;;;;;;;29.00;43.90;;;;;;4904038;29;19986;-75
2022/06/15 08:09:56;;;;;;;;;;;29.00;44.00;;;;;;4899559;29;19957;-79
2022/06/15 08:12:23;;;;;;;;;;;29.10;43.80;;;;;;4899915;29;19981;-68
2022/06/15 08:14:48;;;;;;;;;;;29.10;43.80;;;;;;4899821;29;19923;-76
2022/06/15 08:17:18;;;;;;;;;;;29.20;43.60;;;;;;4893045;29;20470;-72
2022/06/15 08:19:46;;;;;;;;;;;29.20;43.90;;;;;;4888355;29;19912;-73
2022/06/15 08:22:12;;;;;;;;;;;29.00;43.60;;;;;;4888855;29;19924;-79
2022/06/15 08:24:38;;;;;;;;;;;29.00;44.60;;;;;;4888914;29;19912;-73
2022/06/15 08:27:04;;;;;;;;;;;29.00;44.80;;;;;;4894119;29;19911;-67
2022/06/15 08:29:31;;;;;;;;;;;29.10;44.60;;;;;;4899519;29;19954;-73
2022/06/15 08:31:59;;;;;;;;;;;29.10;44.70;;;;;;4899880;29;19911;-71
2022/06/15 08:34:26;;;;;;;;;;;29.20;43.20;;;;;;4899129;29;20260;-76
2022/06/15 08:36:52;;;;;;;;;;;29.10;43.10;;;;;;4899393;29;20002;-70
2022/06/15 08:39:18;;;;;;;;;;;29.00;43.60;;;;;;4899154;29;19968;-72
2022/06/15 08:41:56;;;;;;;;;;;28.90;43.40;;;;;;4899099;29;20332;-70
2022/06/15 08:44:34;;;;;;;;;;;28.90;43.10;;;;;;4893267;29;19922;-70
2022/06/15 08:47:12;;;;;;;;;;;28.90;43.90;;;;;;4891353;29;19938;-72
2022/06/15 08:49:46;;;;;;;;;;;28.90;42.10;;;;;;4887521;29;19919;-71
2022/06/15 08:52:17;;;;;;;;;;;29.00;41.90;;;;;;4890154;29;20360;-75
2022/06/15 08:55:02;;;;;;;;;;;29.00;41.80;;;;;;4888670;29;19924;-72
2022/06/15 08:57:40;;;;;;;;;;;29.00;41.60;;;;;;4879115;29;19916;-73
2022/06/15 09:00:06;;;;;;;;;;;29.00;42.10;;;;;;4890022;29;20018;-70
2022/06/15 09:02:47;;;;;;;;;;;28.90;42.70;;;;;;4880100;29;20011;-75
2022/06/15 09:05:27;;;;;;;;;;;28.90;41.90;;;;;;4882444;29;19950;-71
2022/06/15 09:07:53;;;;;;;;;;;28.90;41.70;;;;;;4895693;29;19920;-67
2022/06/15 09:10:18;;;;;;;;;;;29.00;42.50;;;;;;4898671;29;19912;-67
2022/06/15 09:12:55;;;;;;;;;;;29.10;42.50;;;;;;4899209;29;19912;-76
2022/06/15 09:15:20;;;;;;;;;;;29.10;41.30;;;;;;4898528;29;19919;-69
2022/06/15 09:17:47;;;;;;;;;;;29.10;40.90;;;;;;4898620;29;19911;-66
2022/06/15 09:20:17;;;;;;;;;;;29.00;42.10;;;;;;4898215;29;19954;-66
2022/06/15 09:22:46;;;;;;;;;;;29.00;41.00;;;;;;4898576;29;20288;-75
2022/06/15 09:25:28;;;;;;;;;;;28.90;41.80;;;;;;4898816;29;19934;-66
2022/06/15 09:27:56;;;;;;;;;;;28.80;42.50;;;;;;4899154;29;19912;-78
2022/06/15 09:30:27;;;;;;;;;;;28.90;40.90;;;;;;4898316;29;20014;-76
2022/06/15 09:32:56;;;;;;;;;;;28.80;41.70;;;;;;4898716;29;19912;-73
2022/06/15 09:35:42;;;;;;;;;;;28.70;40.90;;;;;;4898647;29;20063;-77
2022/06/15 09:38:10;;;;;;;;;;;28.70;41.40;;;;;;4898698;29;19912;-78
2022/06/15 09:40:35;;;;;;;;;;;28.70;41.00;;;;;;4898591;29;19911;-73
2022/06/15 09:43:20;;;;;;;;;;;28.70;41.30;;;;;;4898631;29;19908;-66
2022/06/15 09:45:46;;;;;;;;;;;28.70;40.10;;;;;;4898663;29;19911;-67
2022/06/15 09:48:34;;;;;;;;;;;28.60;40.90;;;;;;4901070;29;19912;-66
2022/06/15 09:51:12;;;;;;;;;;;28.60;40.90;;;;;;4901931;29;20390;-65
2022/06/15 09:53:37;;;;;;;;;;;28.50;39.80;;;;;;4902045;29;19916;-74
2022/06/15 09:56:08;;;;;;;;;;;28.60;41.40;;;;;;4902062;29;19970;-78
2022/06/15 09:58:51;;;;;;;;;;;28.60;39.70;;;;;;4902136;29;19912;-67
2022/06/15 10:01:18;;;;;;;;;;;28.50;40.40;;;;;;4902043;29;19993;-75
2022/06/15 10:03:46;;;;;;;;;;;28.50;39.80;;;;;;4902407;29;20014;-67
2022/06/15 10:06:16;;;;;;;;;;;28.50;40.00;;;;;;4901832;29;19916;-79
2022/06/15 10:08:42;;;;;;;;;;;28.40;41.10;;;;;;4901759;29;19939;-78
2022/06/15 10:11:12;;;;;;;;;;;28.50;40.20;;;;;;4902005;29;20002;-79
2022/06/15 10:13:38;;;;;;;;;;;28.50;40.30;;;;;;4902032;29;20013;-70
2022/06/15 10:16:04;;;;;;;;;;;28.40;40.40;;;;;;4901623;29;19915;-78
2022/06/15 10:18:30;;;;;;;;;;;28.50;40.90;;;;;;4901904;29;19920;-78
2022/06/15 10:21:00;;;;;;;;;;;28.50;40.30;;;;;;4901538;29;20016;-80
2022/06/15 10:23:52;;;;;;;;;;;28.40;39.90;;;;;;4901983;29;19959;-75
2022/06/15 10:26:26;;;;;;;;;;;28.40;40.00;;;;;;4893508;29;19919;-78
2022/06/15 10:28:52;;;;;;;;;;;28.30;39.90;;;;;;4901825;29;20010;-80
2022/06/15 10:31:23;;;;;;;;;;;28.30;40.80;;;;;;4901862;29;19968;-79
2022/06/15 10:33:49;;;;;;;;;;;28.30;40.40;;;;;;4901448;29;19923;-81
2022/06/15 10:36:17;;;;;;;;;;;28.20;40.60;;;;;;4901385;29;20412;-65
2022/06/15 10:38:47;;;;;;;;;;;28.20;42.00;;;;;;4893135;29;19916;-68
2022/06/15 10:43:58;;;;;;;;;;;28.20;41.10;;;;;;4882712;29;19923;-73
2022/06/15 10:46:23;;;;;;;;;;;28.20;40.90;;;;;;4882706;29;19968;-67
2022/06/15 10:48:50;;;;;;;;;;;28.20;40.60;;;;;;4882291;29;19916;-64
2022/06/15 10:51:27;;;;;;;;;;;28.10;40.20;;;;;;4882193;29;19912;-69
2022/06/15 10:54:12;;;;;;;;;;;28.10;41.40;;;;;;4882272;29;20361;-70
2022/06/15 11:02:37;;;;;;;;;;;28.10;42.30;;;;;;4899959;29;19959;-67
2022/06/15 11:05:06;;;;;;;;;;;28.20;41.70;;;;;;4899690;29;19975;-71
2022/06/15 11:07:31;;;;;;;;;;;28.20;42.00;;;;;;4897735;29;20383;-66
2022/06/15 11:09:57;;;;;;;;;;;28.20;41.00;;;;;;4899873;29;19911;-71
2022/06/15 11:12:25;;;;;;;;;;;28.20;41.70;;;;;;4900236;29;19912;-70
2022/06/15 11:14:53;;;;;;;;;;;28.30;42.00;;;;;;4900079;29;20287;-67
2022/06/15 11:20:32;;;;;;;;;;;28.30;40.40;;;;;;4900058;29;20055;-65
2022/06/15 11:23:04;;;;;;;;;;;28.30;40.90;;;;;;4894643;29;19912;-68
2022/06/15 11:25:34;;;;;;;;;;;28.30;41.60;;;;;;4900279;29;19994;-74
2022/06/15 11:28:02;;;;;;;;;;;28.20;43.60;;;;;;4900020;29;20377;-69
2022/06/15 11:30:36;;;;;;;;;;;28.20;44.20;;;;;;4899965;29;19912;-67
2022/06/15 11:33:29;;;;;;;;;;;28.20;42.60;;;;;;4900056;29;19927;-68
2022/06/15 11:35:54;;;;;;;;;;;28.20;41.80;;;;;;4889018;29;19935;-75
2022/06/15 11:38:20;;;;;;;;;;;28.10;42.20;;;;;;4899731;29;20380;-70
2022/06/15 11:40:50;;;;;;;;;;;28.20;43.20;;;;;;4894822;29;20296;-67
2022/06/15 11:43:16;;;;;;;;;;;28.20;43.40;;;;;;4891807;29;20067;-66
2022/06/15 11:46:04;;;;;;;;;;;28.20;42.90;;;;;;4899529;29;19947;-72
2022/06/15 11:48:50;;;;;;;;;;;28.20;42.90;;;;;;4871126;29;19911;-71
2022/06/15 11:51:27;;;;;;;;;;;28.30;42.70;;;;;;4899073;29;20015;-69
2022/06/15 11:53:55;;;;;;;;;;;28.30;42.40;;;;;;4899104;29;19916;-75
2022/06/15 11:56:21;;;;;;;;;;;28.30;42.20;;;;;;4890299;29;19919;-76
2022/06/15 11:58:52;;;;;;;;;;;28.30;42.50;;;;;;4895673;29;19923;-65
2022/06/15 12:01:20;;;;;;;;;;;28.30;43.30;;;;;;4899375;29;19918;-67
2022/06/15 12:03:52;;;;;;;;;;;28.30;42.40;;;;;;4899201;29;20408;-65
2022/06/15 12:06:30;;;;;;;;;;;28.30;42.20;;;;;;4890589;29;20015;-68
2022/06/15 12:08:59;;;;;;;;;;;28.40;43.10;;;;;;4896467;29;20277;-70
2022/06/15 12:14:46;;;;;;;;;;;28.40;43.00;;;;;;4899146;29;19942;-69
2022/06/15 12:17:14;;;;;;;;;;;28.50;42.40;;;;;;4898690;29;19911;-68
2022/06/15 12:19:45;;;;;;;;;;;28.40;43.00;;;;;;4896691;29;19926;-68
2022/06/15 12:22:19;;;;;;;;;;;28.40;43.00;;;;;;4898506;29;19930;-70
2022/06/15 12:25:00;;;;;;;;;;;28.40;43.30;;;;;;4898549;29;19919;-72
2022/06/15 12:27:31;;;;;;;;;;;28.40;42.60;;;;;;4898308;29;20298;-68
2022/06/15 12:30:02;;;;;;;;;;;28.30;43.00;;;;;;4896644;29;19916;-70
2022/06/15 12:32:38;;;;;;;;;;;28.30;44.30;;;;;;4885195;29;20014;-71
2022/06/15 12:35:07;;;;;;;;;;;28.20;44.60;;;;;;4898761;29;19927;-72
2022/06/15 12:37:47;;;;;;;;;;;28.30;44.40;;;;;;4898690;29;19942;-73
2022/06/15 12:40:30;;;;;;;;;;;28.30;44.80;;;;;;4898482;29;19934;-73
2022/06/15 12:43:19;;;;;;;;;;;28.30;45.40;;;;;;4898559;29;20048;-74
2022/06/15 12:45:48;;;;;;;;;;;28.30;45.50;;;;;;4870167;29;20369;-72
2022/06/15 12:48:24;;;;;;;;;;;28.30;45.80;;;;;;4889716;29;19959;-70
2022/06/15 12:50:55;;;;;;;;;;;28.30;46.10;;;;;;4893364;29;19919;-65
2022/06/15 12:53:26;;;;;;;;;;;28.30;45.00;;;;;;4899566;29;19911;-63
2022/06/15 12:56:03;;;;;;;;;;;28.30;45.20;;;;;;4894355;29;20373;-63
2022/06/15 12:58:48;;;;;;;;;;;28.20;45.00;;;;;;4890399;29;19919;-64
2022/06/15 13:01:17;;;;;;;;;;;28.20;44.50;;;;;;4894947;29;19912;-65
2022/06/15 13:04:09;;;;;;;;;;;28.20;45.40;;;;;;4889683;29;19919;-65
2022/06/15 13:06:36;;;;;;;;;;;28.20;44.50;;;;;;4888499;29;19911;-64
2022/06/15 13:09:20;;;;;;;;;;;28.20;43.60;;;;;;4882681;29;19912;-63
2022/06/15 13:11:48;;;;;;;;;;;28.20;44.60;;;;;;4880222;29;19912;-64
2022/06/15 13:14:18;;;;;;;;;;;28.20;44.70;;;;;;4880149;29;19923;-65
2022/06/15 13:16:55;;;;;;;;;;;28.20;44.20;;;;;;4890064;29;19916;-66
2022/06/15 13:19:33;;;;;;;;;;;28.20;43.80;;;;;;4886406;29;19918;-71
2022/06/15 13:22:07;;;;;;;;;;;28.20;44.30;;;;;;4886041;29;19927;-69
2022/06/15 13:24:53;;;;;;;;;;;28.20;43.50;;;;;;4896297;29;19912;-68
2022/06/15 13:27:38;;;;;;;;;;;28.20;44.50;;;;;;4888968;29;19911;-69
2022/06/15 13:30:09;;;;;;;;;;;28.10;44.00;;;;;;4894829;29;19912;-72
2022/06/15 13:33:13;;;;;;;;;;;28.10;45.00;;;;;;4898507;29;19999;-69
2022/06/15 13:35:41;;;;;;;;;;;28.10;44.20;;;;;;4861603;29;20529;-71
2022/06/15 13:38:16;;;;;;;;;;;28.10;45.00;;;;;;4853295;29;20276;-66
2022/06/15 13:40:53;;;;;;;;;;;28.20;45.30;;;;;;4866932;29;19913;-68
2022/06/15 13:43:23;;;;;;;;;;;28.20;45.30;;;;;;4869588;29;20420;-64
2022/06/15 13:45:49;;;;;;;;;;;28.20;46.00;;;;;;4854162;29;19927;-71
2022/06/15 13:48:21;;;;;;;;;;;28.10;45.80;;;;;;4874206;29;19912;-70
2022/06/15 13:50:55;;;;;;;;;;;28.10;46.20;;;;;;4885042;29;19919;-68
2022/06/15 13:53:39;;;;;;;;;;;28.10;47.00;;;;;;4880180;29;19982;-73
2022/06/15 13:56:28;;;;;;;;;;;28.10;46.70;;;;;;4872015;29;19975;-69
2022/06/15 13:59:05;;;;;;;;;;;28.10;47.10;;;;;;4872333;29;19952;-68
2022/06/15 14:01:58;;;;;;;;;;;28.10;47.10;;;;;;4877238;29;19912;-70
2022/06/15 14:04:42;;;;;;;;;;;28.10;47.50;;;;;;4869282;29;19935;-67
2022/06/15 14:07:11;;;;;;;;;;;28.20;47.80;;;;;;4886940;29;20249;-70
2022/06/15 14:09:51;;;;;;;;;;;28.10;47.40;;;;;;4889180;29;19912;-68
2022/06/15 14:12:37;;;;;;;;;;;28.00;47.70;;;;;;4889730;29;20438;-70
2022/06/15 14:15:09;;;;;;;;;;;28.00;48.20;;;;;;4889903;29;19980;-69
2022/06/15 14:17:34;;;;;;;;;;;28.00;47.40;;;;;;4887823;29;20085;-70
2022/06/15 14:20:21;;;;;;;;;;;27.90;48.40;;;;;;4889358;29;19915;-71
2022/06/15 14:22:47;;;;;;;;;;;27.90;48.30;;;;;;4888814;29;19919;-67
2022/06/15 14:25:14;;;;;;;;;;;27.90;47.80;;;;;;4889471;29;19968;-70
2022/06/15 14:27:39;;;;;;;;;;;27.90;48.30;;;;;;4887883;29;19912;-70
2022/06/15 14:30:07;;;;;;;;;;;27.80;47.10;;;;;;4887730;29;20321;-74
2022/06/15 14:32:37;;;;;;;;;;;27.80;46.30;;;;;;4892744;29;20373;-73
2022/06/15 14:35:12;;;;;;;;;;;27.80;47.90;;;;;;4901652;29;19920;-65
2022/06/15 14:37:38;;;;;;;;;;;27.90;47.30;;;;;;4901384;29;19919;-70
2022/06/15 14:40:04;;;;;;;;;;;27.90;47.00;;;;;;4901351;29;19912;-63
2022/06/15 14:43:19;;;;;;;;;;;27.90;46.70;;;;;;4901297;29;19918;-69
2022/06/15 14:45:19;;;;;;;;;;;28.00;47.00;;;;;;4894295;29;19911;-68
2022/06/15 14:47:52;;;;;;;;;;;28.10;46.20;;;;;;4901211;29;19939;-66
2022/06/15 14:50:18;;;;;;;;;;;28.10;46.50;;;;;;4901212;29;19919;-67
2022/06/15 14:52:44;;;;;;;;;;;28.10;47.50;;;;;;4901092;29;20300;-63